Terminal Aerodrome Forecast
Issued by NWS Shreveport, LA

Home | Current Version | Previous Version | Text Only | Print | Product List | Glossary On
Versions: 1 2 3 4 5 6 7 8 9 10 11 12 13 14 15 16 17 18 19 20
996
FTUS44 KSHV 241145
TAFTXK
TAF
KTXK 241145Z 2412/2512 18010G15KT P6SM BKN025 OVC040
     FM241600 17015G24KT P6SM BKN035 OVC045
     FM242000 18017G26KT P6SM VCTS BKN040 OVC050CB
     FM242200 VRB20G30KT 3SM TSRA OVC045CB
     FM250300 21013G20KT P6SM SCT040 BKN250=

USA.gov is the U.S. government's official web portal to all federal, state and local government web resources and services.